createdAt,value
2019-04-27T00:00:00.098Z,92.90
2019-04-27T00:02:38.653Z,92.90
2019-04-27T00:05:14.338Z,93.10
2019-04-27T00:07:59.293Z,93.40
2019-04-27T00:10:39.290Z,93.60
2019-04-27T00:13:09.139Z,94.00
2019-04-27T00:15:53.790Z,94.00
2019-04-27T00:18:36.648Z,94.00
2019-04-27T00:21:07.798Z,94.00
2019-04-27T00:23:37.251Z,93.80
2019-04-27T00:26:06.725Z,93.80
2019-04-27T00:28:36.316Z,93.60
2019-04-27T00:31:05.723Z,93.60
2019-04-27T00:33:35.246Z,93.60
2019-04-27T00:36:06.282Z,93.60
2019-04-27T00:38:37.307Z,93.50
2019-04-27T00:41:11.389Z,93.50
2019-04-27T00:43:40.797Z,93.30
2019-04-27T00:46:10.193Z,93.20
2019-04-27T00:48:39.576Z,93.20
2019-04-27T00:51:08.981Z,93.20
2019-04-27T00:53:38.381Z,93.30
2019-04-27T00:56:13.863Z,93.10
2019-04-27T00:58:46.997Z,93.10
2019-04-27T01:01:35.822Z,93.00
2019-04-27T01:04:15.920Z,93.10
2019-04-27T01:06:45.760Z,93.10
2019-04-27T01:09:15.815Z,93.00
2019-04-27T01:11:45.218Z,93.00
2019-04-27T01:14:14.700Z,93.00
2019-04-27T01:16:44.072Z,93.00
2019-04-27T01:19:13.532Z,93.00
2019-04-27T01:21:43.141Z,93.00
2019-04-27T01:24:12.862Z,93.10
2019-04-27T01:26:46.740Z,93.20
2019-04-27T01:29:24.177Z,93.20
2019-04-27T01:31:54.379Z,93.40
2019-04-27T01:34:24.161Z,93.30
2019-04-27T01:36:54.653Z,93.40
2019-04-27T01:39:24.432Z,93.40
2019-04-27T01:41:54.368Z,93.30
2019-04-27T01:44:24.693Z,93.40
2019-04-27T01:46:54.378Z,93.30
2019-04-27T01:49:24.414Z,93.20
2019-04-27T01:51:54.381Z,93.50
2019-04-27T01:54:26.066Z,93.40
2019-04-27T01:56:55.414Z,93.30
2019-04-27T01:59:25.111Z,93.30
2019-04-27T02:02:14.540Z,93.30
2019-04-27T02:05:02.061Z,93.40
2019-04-27T02:07:31.791Z,93.30
2019-04-27T02:10:01.231Z,93.30
2019-04-27T02:12:31.473Z,93.30
2019-04-27T02:15:00.990Z,93.30
2019-04-27T02:17:30.369Z,93.40
2019-04-27T02:19:59.851Z,93.30
2019-04-27T02:22:29.728Z,93.40
2019-04-27T02:24:59.238Z,93.40
2019-04-27T02:27:30.244Z,93.40
2019-04-27T02:30:01.291Z,93.40
2019-04-27T02:32:41.374Z,93.40
2019-04-27T02:35:11.957Z,93.30
2019-04-27T02:37:41.358Z,93.30
2019-04-27T02:40:21.652Z,93.20
2019-04-27T02:42:54.483Z,93.20
2019-04-27T02:45:22.375Z,93.40
2019-04-27T02:47:51.964Z,93.30
2019-04-27T02:50:21.476Z,93.40
2019-04-27T02:52:50.879Z,93.50
2019-04-27T02:55:20.301Z,93.80
2019-04-27T02:57:50.159Z,93.60
2019-04-27T03:00:20.549Z,93.70
2019-04-27T03:02:51.759Z,93.80
2019-04-27T03:05:24.910Z,93.70
2019-04-27T03:07:55.510Z,93.80
2019-04-27T03:10:29.623Z,93.90
2019-04-27T03:13:00.191Z,93.90
2019-04-27T03:15:46.102Z,94.00
2019-04-27T03:18:32.895Z,93.90
2019-04-27T03:21:13.433Z,93.90
2019-04-27T03:23:43.137Z,94.10
2019-04-27T03:26:23.409Z,94.20
2019-04-27T03:28:53.990Z,94.30
2019-04-27T03:31:23.412Z,94.20
2019-04-27T03:33:58.962Z,94.40
2019-04-27T03:36:24.263Z,94.50
2019-04-27T03:38:53.853Z,94.30
2019-04-27T03:41:23.297Z,94.40
2019-04-27T03:43:52.723Z,94.40
2019-04-27T03:46:22.199Z,94.20
2019-04-27T03:48:51.608Z,94.10
2019-04-27T03:51:29.996Z,94.20
2019-04-27T03:54:01.612Z,94.10
2019-04-27T03:56:39.655Z,93.90
2019-04-27T03:59:10.887Z,94.00
2019-04-27T04:01:40.622Z,94.00
2019-04-27T04:04:10.611Z,93.90
2019-04-27T04:06:40.588Z,94.00
2019-04-27T04:09:11.911Z,93.90
2019-04-27T04:11:49.153Z,94.00
2019-04-27T04:14:20.509Z,93.90
2019-04-27T04:16:51.503Z,94.00
2019-04-27T04:19:20.970Z,94.00
2019-04-27T04:21:50.546Z,93.90
2019-04-27T04:24:20.126Z,93.90
2019-04-27T04:26:50.497Z,94.10
2019-04-27T04:29:20.403Z,94.10
2019-04-27T04:31:50.567Z,94.20
2019-04-27T04:34:20.215Z,94.40
2019-04-27T04:36:50.336Z,94.40
2019-04-27T04:39:20.105Z,94.50
2019-04-27T04:41:51.324Z,94.40
2019-04-27T04:44:22.423Z,94.70
2019-04-27T04:47:00.397Z,94.30
2019-04-27T04:49:30.016Z,94.30
2019-04-27T04:51:59.647Z,94.20
2019-04-27T04:54:30.015Z,94.70
2019-04-27T04:56:59.721Z,94.70
2019-04-27T04:59:29.456Z,94.90
2019-04-27T05:02:00.301Z,95.10
2019-04-27T05:04:30.208Z,95.10
2019-04-27T05:06:59.683Z,95.60
2019-04-27T05:09:29.669Z,95.70
2019-04-27T05:11:59.576Z,95.30
2019-04-27T05:14:29.093Z,95.40
2019-04-27T05:16:59.172Z,95.50
2019-04-27T05:19:29.875Z,95.50
2019-04-27T05:21:59.542Z,95.60
2019-04-27T05:24:29.375Z,95.60
2019-04-27T05:26:59.148Z,95.50
2019-04-27T05:29:29.301Z,95.50
2019-04-27T05:31:59.338Z,95.50
2019-04-27T05:34:29.450Z,95.50
2019-04-27T05:37:01.074Z,95.50
2019-04-27T05:39:30.263Z,95.60
2019-04-27T05:41:59.943Z,95.80
2019-04-27T05:44:52.360Z,95.70
2019-04-27T05:47:23.399Z,95.80
2019-04-27T05:49:54.520Z,95.70
2019-04-27T05:52:29.974Z,95.80
2019-04-27T05:55:00.022Z,95.80
2019-04-27T05:57:31.416Z,95.70
2019-04-27T06:00:02.350Z,95.80
2019-04-27T06:02:32.155Z,95.80
2019-04-27T06:05:01.547Z,95.70
2019-04-27T06:07:30.942Z,95.90
2019-04-27T06:10:01.903Z,96.00
2019-04-27T06:12:31.695Z,95.90
2019-04-27T06:15:01.075Z,96.00
2019-04-27T06:17:30.735Z,96.30
2019-04-27T06:20:00.141Z,95.90
2019-04-27T06:22:29.618Z,95.80
2019-04-27T06:25:00.019Z,95.90
2019-04-27T06:27:30.757Z,95.80
2019-04-27T06:30:00.439Z,95.70
2019-04-27T06:32:29.885Z,95.70
2019-04-27T06:34:59.397Z,95.70
2019-04-27T06:37:29.394Z,95.60
2019-04-27T06:39:59.617Z,95.60
2019-04-27T06:42:29.915Z,95.50
2019-04-27T06:45:00.071Z,95.50
2019-04-27T06:47:29.778Z,95.40
2019-04-27T06:50:19.598Z,95.30
2019-04-27T06:52:49.310Z,95.10
2019-04-27T06:55:18.998Z,95.00
2019-04-27T06:57:49.072Z,94.90
2019-04-27T07:00:19.059Z,94.90
2019-04-27T07:02:49.301Z,95.00
2019-04-27T07:05:20.360Z,95.00
2019-04-27T07:07:50.007Z,95.30
2019-04-27T07:10:19.388Z,95.40
2019-04-27T07:12:49.178Z,95.50
2019-04-27T07:15:20.510Z,95.30
2019-04-27T07:17:50.080Z,95.40
2019-04-27T07:20:41.187Z,95.50
2019-04-27T07:23:13.235Z,95.40
2019-04-27T07:25:45.158Z,95.20
2019-04-27T07:28:16.849Z,94.90
2019-04-27T07:30:48.745Z,94.80
2019-04-27T07:33:18.661Z,94.60
2019-04-27T07:35:49.049Z,94.60
2019-04-27T07:38:19.211Z,95.00
2019-04-27T07:40:48.951Z,94.60
2019-04-27T07:43:22.689Z,94.20
2019-04-27T07:45:52.109Z,94.20
2019-04-27T07:48:21.542Z,94.50
2019-04-27T07:50:50.935Z,94.80
2019-04-27T07:53:20.405Z,95.10
2019-04-27T07:55:49.802Z,95.20
2019-04-27T07:58:20.574Z,95.50
2019-04-27T08:00:51.088Z,95.70
2019-04-27T08:03:20.625Z,95.90
2019-04-27T08:05:50.081Z,95.40
2019-04-27T08:08:19.479Z,95.20
2019-04-27T08:10:50.201Z,94.90
2019-04-27T08:13:19.879Z,94.70
2019-04-27T08:15:49.694Z,94.60
2019-04-27T08:18:19.209Z,94.60
2019-04-27T08:20:49.161Z,94.60
2019-04-27T08:23:19.545Z,94.50
2019-04-27T08:26:10.094Z,94.30
2019-04-27T08:28:44.095Z,94.40
2019-04-27T08:31:18.746Z,94.40
2019-04-27T08:33:48.660Z,94.50
2019-04-27T08:36:19.016Z,94.30
2019-04-27T08:38:48.971Z,94.30
2019-04-27T08:41:21.047Z,94.40
2019-04-27T08:43:50.105Z,94.00
2019-04-27T08:46:19.677Z,93.50
2019-04-27T08:48:49.158Z,93.00
2019-04-27T08:51:19.654Z,92.90
2019-04-27T08:53:50.113Z,93.20
2019-04-27T08:56:19.745Z,93.60
2019-04-27T08:58:49.721Z,93.90
2019-04-27T09:01:20.751Z,94.00
2019-04-27T09:03:50.350Z,94.20
2019-04-27T09:06:19.751Z,94.50
2019-04-27T09:08:50.836Z,94.50
2019-04-27T09:11:29.022Z,94.70
2019-04-27T09:14:00.102Z,95.00
2019-04-27T09:16:31.118Z,95.00
2019-04-27T09:19:02.140Z,95.40
2019-04-27T09:21:33.274Z,95.40
2019-04-27T09:24:02.648Z,95.90
2019-04-27T09:26:32.079Z,95.10
2019-04-27T09:29:01.506Z,94.90
2019-04-27T09:31:30.917Z,94.60
2019-04-27T09:34:00.308Z,94.50
2019-04-27T09:36:30.128Z,94.80
2019-04-27T09:38:59.579Z,94.50
2019-04-27T09:41:29.022Z,94.50
2019-04-27T09:43:58.778Z,94.60
2019-04-27T09:46:28.168Z,94.80
2019-04-27T09:48:57.940Z,94.90
2019-04-27T09:51:27.369Z,94.60
2019-04-27T09:53:56.766Z,94.00
2019-04-27T09:56:26.206Z,93.90
2019-04-27T09:58:57.246Z,94.00
2019-04-27T10:01:28.864Z,94.10
2019-04-27T10:03:57.801Z,94.20
2019-04-27T10:06:29.839Z,94.30
2019-04-27T10:09:17.647Z,94.60
2019-04-27T10:11:47.068Z,94.30
2019-04-27T10:14:16.452Z,94.50
2019-04-27T10:16:46.896Z,94.60
2019-04-27T10:19:28.300Z,94.60
2019-04-27T10:21:47.717Z,94.70
2019-04-27T10:24:17.208Z,94.70
2019-04-27T10:26:46.926Z,94.50
2019-04-27T10:29:16.331Z,94.30
2019-04-27T10:31:46.074Z,94.20
2019-04-27T10:34:17.071Z,93.90
2019-04-27T10:36:46.507Z,93.90
2019-04-27T10:39:17.053Z,94.00
2019-04-27T10:41:46.589Z,93.90
2019-04-27T10:44:16.433Z,93.80
2019-04-27T10:46:45.954Z,94.00
2019-04-27T10:49:15.999Z,93.80
2019-04-27T10:51:45.886Z,93.30
2019-04-27T10:54:15.371Z,93.00
2019-04-27T10:56:46.030Z,92.90
2019-04-27T10:59:16.464Z,93.00
2019-04-27T11:01:46.114Z,93.10
2019-04-27T11:04:32.324Z,92.40
2019-04-27T11:07:09.041Z,92.70
2019-04-27T11:09:40.062Z,92.90
2019-04-27T11:12:09.593Z,92.40
2019-04-27T11:14:39.048Z,92.40
2019-04-27T11:17:10.560Z,92.30
2019-04-27T11:19:40.044Z,91.90
2019-04-27T11:22:09.787Z,91.20
2019-04-27T11:24:39.507Z,91.20
2019-04-27T11:27:08.938Z,91.40
2019-04-27T11:29:38.339Z,90.50
2019-04-27T11:32:07.724Z,90.20
2019-04-27T11:34:55.837Z,90.10
2019-04-27T11:37:26.956Z,90.40
2019-04-27T11:39:56.343Z,90.70
2019-04-27T11:42:25.767Z,90.80
2019-04-27T11:44:57.958Z,91.10
2019-04-27T11:47:27.471Z,90.80
2019-04-27T11:49:57.921Z,90.60
2019-04-27T11:52:27.444Z,90.80
2019-04-27T11:54:56.893Z,91.00
2019-04-27T11:57:26.311Z,90.30
2019-04-27T11:59:56.329Z,90.20
2019-04-27T12:02:26.920Z,90.30
2019-04-27T12:04:56.334Z,90.40
2019-04-27T12:07:25.763Z,90.10
2019-04-27T12:09:55.616Z,90.70
2019-04-27T12:12:26.235Z,90.60
2019-04-27T12:14:56.040Z,90.40
2019-04-27T12:17:28.950Z,90.50
2019-04-27T12:19:58.046Z,90.90
2019-04-27T12:22:27.423Z,90.60
2019-04-27T12:24:56.837Z,90.40
2019-04-27T12:27:30.733Z,90.00
2019-04-27T12:30:06.170Z,90.20
2019-04-27T12:32:36.047Z,90.10
2019-04-27T12:35:07.014Z,88.40
2019-04-27T12:37:36.408Z,90.00
2019-04-27T12:40:07.822Z,89.40
2019-04-27T12:42:38.347Z,88.80
2019-04-27T12:45:08.814Z,89.80
2019-04-27T12:47:38.315Z,88.80
2019-04-27T12:50:13.130Z,89.20
2019-04-27T12:52:45.944Z,87.30
2019-04-27T12:55:17.579Z,87.40
2019-04-27T12:57:48.635Z,86.60
2019-04-27T13:00:20.099Z,87.40
2019-04-27T13:02:49.537Z,86.30
2019-04-27T13:05:18.933Z,84.20
2019-04-27T13:07:48.291Z,84.20
2019-04-27T13:10:17.829Z,85.10
2019-04-27T13:12:56.182Z,85.40
2019-04-27T13:15:26.475Z,86.90
2019-04-27T13:17:57.419Z,87.70
2019-04-27T13:20:26.981Z,86.90
2019-04-27T13:22:56.382Z,86.60
2019-04-27T13:25:26.211Z,87.20
2019-04-27T13:27:56.698Z,87.10
2019-04-27T13:30:26.490Z,88.40
2019-04-27T13:32:56.300Z,89.60
2019-04-27T13:35:26.216Z,90.50
2019-04-27T13:37:56.070Z,90.50
2019-04-27T13:40:26.369Z,90.90
2019-04-27T13:43:07.610Z,90.90
2019-04-27T13:45:38.861Z,91.00
2019-04-27T13:48:10.788Z,91.20
2019-04-27T13:50:45.709Z,90.70
2019-04-27T13:53:16.803Z,90.70
2019-04-27T13:55:46.413Z,90.70
2019-04-27T13:58:17.462Z,90.50
2019-04-27T14:00:46.857Z,90.60
2019-04-27T14:03:16.803Z,90.30
2019-04-27T14:05:47.776Z,90.50
2019-04-27T14:08:17.335Z,90.00
2019-04-27T14:10:47.029Z,89.40
2019-04-27T14:13:18.067Z,89.30
2019-04-27T14:15:49.077Z,88.40
2019-04-27T14:18:18.930Z,89.10
2019-04-27T14:20:48.783Z,89.30
2019-04-27T14:23:19.903Z,88.80
2019-04-27T14:25:49.288Z,88.50
2019-04-27T14:28:18.669Z,88.70
2019-04-27T14:30:48.701Z,88.10
2019-04-27T14:33:18.648Z,88.70
2019-04-27T14:35:49.912Z,88.70
2019-04-27T14:38:19.582Z,89.00
2019-04-27T14:40:50.368Z,90.00
2019-04-27T14:43:20.087Z,90.00
2019-04-27T14:45:49.501Z,89.70
2019-04-27T14:48:18.861Z,89.40
2019-04-27T14:50:48.615Z,88.10
2019-04-27T14:53:18.112Z,87.00
2019-04-27T14:55:48.990Z,87.10
2019-04-27T14:58:20.037Z,87.20
2019-04-27T15:00:50.065Z,87.10
2019-04-27T15:03:19.473Z,86.40
2019-04-27T15:05:49.658Z,86.30
2019-04-27T15:08:20.239Z,86.10
2019-04-27T15:10:49.896Z,86.20
2019-04-27T15:13:19.464Z,86.60
2019-04-27T15:15:48.849Z,86.10
2019-04-27T15:18:19.668Z,85.60
2019-04-27T15:20:51.724Z,85.80
2019-04-27T15:23:21.283Z,84.70
2019-04-27T15:25:50.729Z,85.20
2019-04-27T15:28:22.758Z,84.50
2019-04-27T15:30:53.909Z,84.00
2019-04-27T15:33:41.043Z,84.90
2019-04-27T15:36:14.607Z,84.70
2019-04-27T15:38:47.680Z,85.10
2019-04-27T15:41:30.402Z,84.30
2019-04-27T15:44:05.622Z,84.70
2019-04-27T15:46:33.794Z,84.80
2019-04-27T15:49:03.222Z,84.10
2019-04-27T15:51:33.063Z,83.90
2019-04-27T15:54:04.788Z,83.40
2019-04-27T15:56:35.087Z,83.70
2019-04-27T15:59:05.626Z,82.90
2019-04-27T16:01:37.752Z,83.00
2019-04-27T16:04:10.995Z,83.20
2019-04-27T16:06:42.713Z,83.10
2019-04-27T16:09:16.138Z,82.40
2019-04-27T16:11:42.778Z,83.10
2019-04-27T16:14:12.196Z,83.70
2019-04-27T16:16:41.920Z,83.70
2019-04-27T16:19:11.933Z,83.40
2019-04-27T16:21:47.642Z,83.00
2019-04-27T16:24:17.008Z,83.30
2019-04-27T16:26:46.411Z,83.90
2019-04-27T16:29:15.527Z,83.50
2019-04-27T16:31:45.130Z,83.60
2019-04-27T16:34:14.570Z,83.00
2019-04-27T16:36:44.664Z,83.10
2019-04-27T16:39:14.091Z,82.80
2019-04-27T16:41:43.773Z,83.20
2019-04-27T16:44:13.151Z,83.60
2019-04-27T16:46:43.288Z,83.90
2019-04-27T16:49:14.989Z,83.90
2019-04-27T16:51:44.092Z,85.00
2019-04-27T16:54:17.504Z,86.00
2019-04-27T16:56:45.679Z,86.60
2019-04-27T16:59:36.575Z,87.50
2019-04-27T17:01:47.518Z,87.70
2019-04-27T17:04:17.026Z,87.90
2019-04-27T17:06:49.262Z,87.20
2019-04-27T17:09:18.970Z,87.40
2019-04-27T17:11:50.290Z,87.70
2019-04-27T17:14:34.826Z,87.80
2019-04-27T17:17:17.863Z,87.90
2019-04-27T17:19:51.911Z,88.20
2019-04-27T17:22:21.142Z,88.10
2019-04-27T17:24:50.595Z,88.20
2019-04-27T17:27:28.752Z,88.40
2019-04-27T17:29:58.249Z,88.60
2019-04-27T17:32:33.714Z,88.70
2019-04-27T17:35:05.194Z,88.50
2019-04-27T17:37:34.005Z,88.40
2019-04-27T17:40:03.554Z,88.40
2019-04-27T17:42:32.980Z,88.20
2019-04-27T17:45:02.377Z,87.90
2019-04-27T17:47:31.779Z,87.80
2019-04-27T17:50:01.172Z,88.20
2019-04-27T17:52:30.533Z,88.80
2019-04-27T17:55:00.595Z,89.70
2019-04-27T17:57:30.579Z,89.90
2019-04-27T18:00:03.125Z,90.00
2019-04-27T18:02:33.870Z,90.10
2019-04-27T18:05:02.228Z,90.30
2019-04-27T18:07:34.992Z,90.30
2019-04-27T18:10:03.151Z,90.40
2019-04-27T18:12:32.640Z,90.60
2019-04-27T18:15:02.078Z,90.70
2019-04-27T18:17:32.570Z,91.10
2019-04-27T18:20:06.119Z,90.90
2019-04-27T18:22:39.630Z,91.00
2019-04-27T18:25:10.531Z,91.20
2019-04-27T18:27:41.549Z,91.30
2019-04-27T18:30:15.930Z,91.20
2019-04-27T18:32:46.041Z,91.30
2019-04-27T18:35:21.675Z,91.30
2019-04-27T18:37:48.065Z,91.20
2019-04-27T18:40:18.215Z,91.30
2019-04-27T18:42:47.636Z,91.40
2019-04-27T18:45:18.507Z,91.30
2019-04-27T18:47:49.702Z,91.20
2019-04-27T18:50:39.043Z,91.00
2019-04-27T18:53:10.139Z,91.10
2019-04-27T18:55:39.567Z,91.10
2019-04-27T18:58:09.383Z,91.10
2019-04-27T19:00:41.192Z,91.20
2019-04-27T19:03:10.672Z,91.20
2019-04-27T19:05:40.658Z,91.30
2019-04-27T19:08:10.186Z,91.20
2019-04-27T19:10:42.204Z,91.30
2019-04-27T19:13:11.574Z,91.20
2019-04-27T19:15:41.204Z,91.20
2019-04-27T19:18:10.695Z,91.20
2019-04-27T19:20:40.343Z,91.20
2019-04-27T19:23:10.053Z,91.20
2019-04-27T19:25:53.235Z,91.30
2019-04-27T19:28:39.652Z,91.30
2019-04-27T19:31:10.753Z,91.30
2019-04-27T19:33:40.323Z,91.30
2019-04-27T19:36:09.822Z,91.30
2019-04-27T19:38:39.308Z,91.30
2019-04-27T19:41:09.911Z,91.30
2019-04-27T19:43:39.404Z,91.50
2019-04-27T19:46:10.376Z,91.20
2019-04-27T19:48:41.755Z,91.20
2019-04-27T19:51:21.833Z,91.20
2019-04-27T19:53:51.342Z,91.10
2019-04-27T19:56:21.368Z,91.10
2019-04-27T19:58:58.102Z,91.10
2019-04-27T20:01:29.341Z,91.10
2019-04-27T20:04:02.814Z,91.00
2019-04-27T20:06:32.573Z,91.00
2019-04-27T20:09:20.219Z,90.90
2019-04-27T20:11:49.739Z,90.90
2019-04-27T20:14:20.865Z,90.90
2019-04-27T20:16:51.950Z,90.70
2019-04-27T20:19:21.658Z,90.70
2019-04-27T20:21:51.087Z,90.80
2019-04-27T20:24:20.569Z,90.70
2019-04-27T20:26:50.325Z,90.60
2019-04-27T20:29:21.305Z,90.60
2019-04-27T20:31:51.284Z,90.60
2019-04-27T20:34:22.597Z,90.40
2019-04-27T20:36:52.890Z,90.30
2019-04-27T20:39:22.453Z,90.40
2019-04-27T20:41:51.839Z,90.20
2019-04-27T20:44:21.215Z,90.30
2019-04-27T20:46:51.438Z,90.30
2019-04-27T20:49:21.367Z,90.30
2019-04-27T20:51:53.138Z,90.20
2019-04-27T20:54:23.615Z,90.30
2019-04-27T20:56:53.954Z,90.30
2019-04-27T20:59:24.190Z,90.30
2019-04-27T21:01:53.645Z,90.30
2019-04-27T21:04:27.406Z,90.20
2019-04-27T21:07:04.096Z,90.30
2019-04-27T21:09:33.478Z,90.40
2019-04-27T21:12:02.866Z,90.40
2019-04-27T21:14:32.847Z,90.40
2019-04-27T21:17:02.221Z,90.30
2019-04-27T21:19:31.705Z,90.30
2019-04-27T21:22:01.320Z,90.40
2019-04-27T21:24:31.127Z,90.30
2019-04-27T21:27:00.711Z,90.40
2019-04-27T21:29:31.197Z,90.50
2019-04-27T21:32:01.120Z,90.70
2019-04-27T21:34:31.182Z,90.80
2019-04-27T21:37:01.078Z,90.90
2019-04-27T21:39:31.920Z,91.10
2019-04-27T21:42:01.392Z,91.00
2019-04-27T21:44:31.911Z,91.20
2019-04-27T21:47:01.576Z,91.30
2019-04-27T21:49:31.473Z,91.30
2019-04-27T21:52:02.763Z,91.40
2019-04-27T21:54:33.796Z,91.40
2019-04-27T21:57:03.628Z,91.50
2019-04-27T21:59:33.017Z,91.50
2019-04-27T22:02:03.917Z,91.50
2019-04-27T22:04:33.292Z,91.60
2019-04-27T22:07:02.813Z,91.60
2019-04-27T22:09:32.234Z,91.70
2019-04-27T22:12:02.506Z,91.70
2019-04-27T22:14:32.167Z,91.60
2019-04-27T22:17:01.588Z,91.60
2019-04-27T22:19:31.270Z,91.60
2019-04-27T22:22:02.248Z,91.70
2019-04-27T22:24:33.286Z,91.60
2019-04-27T22:27:22.231Z,91.70
2019-04-27T22:29:52.725Z,91.60
2019-04-27T22:32:22.182Z,91.60
2019-04-27T22:34:51.586Z,91.70
2019-04-27T22:37:21.343Z,91.70
2019-04-27T22:39:54.816Z,91.70
2019-04-27T22:42:31.819Z,91.80
2019-04-27T22:45:02.824Z,91.90
2019-04-27T22:47:32.585Z,91.90
2019-04-27T22:50:01.960Z,92.00
2019-04-27T22:52:31.372Z,91.80
2019-04-27T22:55:01.686Z,92.00
2019-04-27T22:57:32.743Z,92.00
2019-04-27T23:00:03.902Z,92.00
2019-04-27T23:02:40.870Z,92.00
2019-04-27T23:05:11.406Z,92.00
2019-04-27T23:07:41.454Z,92.00
2019-04-27T23:10:11.336Z,92.00
2019-04-27T23:12:41.930Z,92.00
2019-04-27T23:15:13.456Z,92.10
2019-04-27T23:17:55.154Z,92.00
2019-04-27T23:20:24.608Z,92.10
2019-04-27T23:22:53.987Z,92.10
2019-04-27T23:25:23.371Z,92.20
2019-04-27T23:28:12.105Z,92.20
2019-04-27T23:31:02.538Z,92.20
2019-04-27T23:33:31.982Z,92.10
2019-04-27T23:36:01.612Z,92.20
2019-04-27T23:38:31.113Z,92.20
2019-04-27T23:41:01.780Z,92.30
2019-04-27T23:43:31.252Z,92.20
2019-04-27T23:46:01.628Z,92.30
2019-04-27T23:48:32.100Z,92.30
2019-04-27T23:51:19.267Z,92.30
2019-04-27T23:53:48.654Z,92.30
2019-04-27T23:56:18.363Z,92.20
2019-04-27T23:58:47.768Z,92.40
